PWSweather.com
Personal Weather Stations
Station Observations
IMAZOWIE6
WarszawaPL

WarszawaPL

Lat: 52.27957, Lon: 21.05489

Elevation: 100

Station Type: WS1080

http://stacjapogody.waw.pl/

High Low Average
Temperature 50.5°F10.3°C 38.8°F3.8°C 43.9°F6.6°C
Dew Point -167.7°F-110.9°C -168.9°F-111.6°C -168.4°F-111.3°C
Winds 0.6 mph 1.0 kmh Calm Calm Calm NCalm N
Wind Gusts 4.0 mph6.4 kmh -- --
Humidity - - -
Pressure 29.28 in991.5 mb 29.06 in984.1 mb -
Precipitation 0.00 in0.0 mm - -
Hour Temp Dew Point Humidity Winds Wind Gusts Pressure Precip Precip Rate Daily Precip Total
12:01 AM 40.5°F4.7°C -168.8°F-111.6°C - Calm Calm -- 29.28 in991.5 mb 0.00 in0.0 mm 0.00 in0.0 mm 0.00 in0.0 mm
12:16 AM 40.5°F4.7°C -168.8°F-111.6°C - Calm Calm -- 29.28 in991.5 mb 0.00 in0.0 mm 0.00 in0.0 mm 0.00 in0.0 mm
12:31 AM 40.3°F4.6°C -168.8°F-111.6°C - Calm Calm -- 29.27 in991.2 mb 0.00 in0.0 mm 0.00 in0.0 mm 0.00 in0.0 mm
12:46 AM 40.5°F4.7°C -168.8°F-111.6°C - Calm Calm -- 29.27 in991.2 mb 0.00 in0.0 mm 0.00 in0.0 mm 0.00 in0.0 mm
01:01 AM 40.3°F4.6°C -168.8°F-111.6°C - Calm Calm 0.6 mph1.0 kmh 29.27 in991.2 mb 0.00 in0.0 mm 0.00 in0.0 mm 0.00 in0.0 mm
01:16 AM 40.1°F4.5°C -168.8°F-111.6°C - Calm Calm -- 29.27 in991.2 mb 0.00 in0.0 mm 0.00 in0.0 mm 0.00 in0.0 mm
01:31 AM 40.3°F4.6°C -168.8°F-111.6°C - Calm Calm 0.6 mph1.0 kmh 29.27 in991.2 mb 0.00 in0.0 mm 0.00 in0.0 mm 0.00 in0.0 mm
01:46 AM 39.9°F4.4°C -168.8°F-111.6°C - Calm Calm 0.6 mph1.0 kmh 29.26 in990.9 mb 0.00 in0.0 mm 0.00 in0.0 mm 0.00 in0.0 mm
02:01 AM 39.7°F4.3°C -168.8°F-111.6°C - Calm Calm -- 29.26 in990.9 mb 0.00 in0.0 mm 0.00 in0.0 mm 0.00 in0.0 mm
02:16 AM 39.4°F4.1°C -168.9°F-111.6°C - Calm Calm -- 29.26 in990.9 mb 0.00 in0.0 mm 0.00 in0.0 mm 0.00 in0.0 mm
02:31 AM 39.2°F4.0°C -168.9°F-111.6°C - Calm Calm -- 29.26 in990.9 mb 0.00 in0.0 mm 0.00 in0.0 mm 0.00 in0.0 mm
02:46 AM 38.8°F3.8°C -168.9°F-111.6°C - Calm Calm -- 29.25 in990.5 mb 0.00 in0.0 mm 0.00 in0.0 mm 0.00 in0.0 mm
03:01 AM 39.0°F3.9°C -168.9°F-111.6°C - Calm Calm 0.6 mph1.0 kmh 29.24 in990.2 mb 0.00 in0.0 mm 0.00 in0.0 mm 0.00 in0.0 mm
03:16 AM 39.4°F4.1°C -168.9°F-111.6°C - Calm Calm -- 29.24 in990.2 mb 0.00 in0.0 mm 0.00 in0.0 mm 0.00 in0.0 mm
03:31 AM 39.7°F4.3°C -168.8°F-111.6°C - Calm Calm -- 29.24 in990.2 mb 0.00 in0.0 mm 0.00 in0.0 mm 0.00 in0.0 mm
03:46 AM 39.9°F4.4°C -168.8°F-111.6°C - Calm Calm 0.6 mph1.0 kmh 29.24 in990.2 mb 0.00 in0.0 mm 0.00 in0.0 mm 0.00 in0.0 mm
04:01 AM 40.3°F4.6°C -168.8°F-111.6°C - Calm Calm 0.6 mph1.0 kmh 29.24 in990.2 mb 0.00 in0.0 mm 0.00 in0.0 mm 0.00 in0.0 mm
04:16 AM 40.5°F4.7°C -168.8°F-111.6°C - Calm Calm 0.6 mph1.0 kmh 29.23 in989.8 mb 0.00 in0.0 mm 0.00 in0.0 mm 0.00 in0.0 mm
04:31 AM 40.3°F4.6°C -168.8°F-111.6°C - Calm Calm -- 29.22 in989.5 mb 0.00 in0.0 mm 0.00 in0.0 mm 0.00 in0.0 mm
04:46 AM 40.1°F4.5°C -168.8°F-111.6°C - 0.6 mph N1.0 kmh N 4.0 mph6.4 kmh 29.23 in989.8 mb 0.00 in0.0 mm 0.00 in0.0 mm 0.00 in0.0 mm
05:01 AM 40.1°F4.5°C -168.8°F-111.6°C - Calm Calm -- 29.22 in989.5 mb 0.00 in0.0 mm 0.00 in0.0 mm 0.00 in0.0 mm
05:16 AM 39.9°F4.4°C -168.8°F-111.6°C - Calm Calm -- 29.22 in989.5 mb 0.00 in0.0 mm 0.00 in0.0 mm 0.00 in0.0 mm
05:31 AM 39.4°F4.1°C -168.9°F-111.6°C - Calm Calm -- 29.22 in989.5 mb 0.00 in0.0 mm 0.00 in0.0 mm 0.00 in0.0 mm
05:46 AM 39.2°F4.0°C -168.9°F-111.6°C - Calm Calm -- 29.21 in989.2 mb 0.00 in0.0 mm 0.00 in0.0 mm 0.00 in0.0 mm
06:01 AM 38.8°F3.8°C -168.9°F-111.6°C - Calm Calm -- 29.21 in989.2 mb 0.00 in0.0 mm 0.00 in0.0 mm 0.00 in0.0 mm
06:16 AM 38.8°F3.8°C -168.9°F-111.6°C - Calm Calm -- 29.21 in989.2 mb 0.00 in0.0 mm 0.00 in0.0 mm 0.00 in0.0 mm
06:31 AM 40.6°F4.8°C -168.7°F-111.5°C - Calm Calm 1.4 mph2.3 kmh 29.20 in988.8 mb 0.00 in0.0 mm 0.00 in0.0 mm 0.00 in0.0 mm
06:46 AM 42.3°F5.7°C -168.6°F-111.4°C - Calm Calm -- 29.20 in988.8 mb 0.00 in0.0 mm 0.00 in0.0 mm 0.00 in0.0 mm
07:01 AM 41.7°F5.4°C -168.6°F-111.4°C - Calm Calm -- 29.20 in988.8 mb 0.00 in0.0 mm 0.00 in0.0 mm 0.00 in0.0 mm
07:16 AM 41.7°F5.4°C -168.6°F-111.4°C - Calm Calm -- 29.20 in988.8 mb 0.00 in0.0 mm 0.00 in0.0 mm 0.00 in0.0 mm
07:31 AM 41.7°F5.4°C -168.6°F-111.4°C - Calm Calm -- 29.20 in988.8 mb 0.00 in0.0 mm 0.00 in0.0 mm 0.00 in0.0 mm
07:46 AM 42.3°F5.7°C -168.6°F-111.4°C - Calm Calm -- 29.20 in988.8 mb 0.00 in0.0 mm 0.00 in0.0 mm 0.00 in0.0 mm
08:01 AM 43.3°F6.3°C -168.5°F-111.4°C - Calm Calm -- 29.20 in988.8 mb 0.00 in0.0 mm 0.00 in0.0 mm 0.00 in0.0 mm
08:16 AM 48.0°F8.9°C -168.0°F-111.1°C - Calm Calm -- 29.20 in988.8 mb 0.00 in0.0 mm 0.00 in0.0 mm 0.00 in0.0 mm
08:31 AM 46.8°F8.2°C -168.1°F-111.2°C - Calm Calm -- 29.20 in988.8 mb 0.00 in0.0 mm 0.00 in0.0 mm 0.00 in0.0 mm
08:46 AM 45.9°F7.7°C -168.2°F-111.2°C - Calm Calm -- 29.20 in988.8 mb 0.00 in0.0 mm 0.00 in0.0 mm 0.00 in0.0 mm
09:01 AM 45.3°F7.4°C -168.3°F-111.3°C - Calm Calm -- 29.20 in988.8 mb 0.00 in0.0 mm 0.00 in0.0 mm 0.00 in0.0 mm
09:16 AM 45.9°F7.7°C -168.2°F-111.2°C - Calm Calm -- 29.19 in988.5 mb 0.00 in0.0 mm 0.00 in0.0 mm 0.00 in0.0 mm
09:31 AM 46.4°F8.0°C -168.2°F-111.2°C - Calm Calm -- 29.19 in988.5 mb 0.00 in0.0 mm 0.00 in0.0 mm 0.00 in0.0 mm
09:46 AM 46.8°F8.2°C -168.1°F-111.2°C - Calm Calm -- 29.20 in988.8 mb 0.00 in0.0 mm 0.00 in0.0 mm 0.00 in0.0 mm
10:01 AM 47.1°F8.4°C -168.1°F-111.2°C - Calm Calm -- 29.19 in988.5 mb 0.00 in0.0 mm 0.00 in0.0 mm 0.00 in0.0 mm
10:16 AM 47.1°F8.4°C -168.1°F-111.2°C - Calm Calm -- 29.19 in988.5 mb 0.00 in0.0 mm 0.00 in0.0 mm 0.00 in0.0 mm
10:31 AM 49.6°F9.8°C -167.8°F-111.0°C - Calm Calm 0.6 mph1.0 kmh 29.18 in988.1 mb 0.00 in0.0 mm 0.00 in0.0 mm 0.00 in0.0 mm
10:46 AM 49.1°F9.5°C -167.9°F-111.1°C - Calm Calm -- 29.19 in988.5 mb 0.00 in0.0 mm 0.00 in0.0 mm 0.00 in0.0 mm
11:01 AM 48.4°F9.1°C -168.0°F-111.1°C - Calm Calm -- 29.19 in988.5 mb 0.00 in0.0 mm 0.00 in0.0 mm 0.00 in0.0 mm
11:16 AM 45.9°F7.7°C -168.2°F-111.2°C - Calm Calm -- 29.19 in988.5 mb 0.00 in0.0 mm 0.00 in0.0 mm 0.00 in0.0 mm
11:31 AM 45.7°F7.6°C -168.2°F-111.2°C - Calm Calm -- 29.19 in988.5 mb 0.01 in0.3 mm 0.05 in1.3 mm 0.01 in0.3 mm
11:46 AM 46.2°F7.9°C -168.2°F-111.2°C - 0.6 mph N1.0 kmh N 2.8 mph4.5 kmh 29.19 in988.5 mb 0.01 in0.3 mm 0.00 in0.0 mm 0.01 in0.3 mm
12:01 PM 47.1°F8.4°C -168.1°F-111.2°C - Calm Calm -- 29.18 in988.1 mb 0.01 in0.3 mm 0.00 in0.0 mm 0.01 in0.3 mm
12:16 PM 47.8°F8.8°C -168.0°F-111.1°C - Calm Calm -- 29.18 in988.1 mb 0.00 in0.0 mm 0.00 in0.0 mm 0.01 in0.3 mm
12:31 PM 49.6°F9.8°C -167.8°F-111.0°C - Calm Calm -- 29.18 in988.1 mb 0.00 in0.0 mm 0.00 in0.0 mm 0.01 in0.3 mm
12:46 PM 50.5°F10.3°C -167.7°F-110.9°C - Calm Calm -- 29.17 in987.8 mb 0.00 in0.0 mm 0.00 in0.0 mm 0.01 in0.3 mm
01:01 PM 50.0°F10.0°C -167.8°F-111.0°C - Calm Calm 0.6 mph1.0 kmh 29.17 in987.8 mb 0.00 in0.0 mm 0.00 in0.0 mm 0.01 in0.3 mm
01:16 PM 48.6°F9.2°C -167.9°F-111.1°C - Calm Calm -- 29.17 in987.8 mb 0.00 in0.0 mm 0.00 in0.0 mm 0.01 in0.3 mm
01:31 PM 48.4°F9.1°C -168.0°F-111.1°C - Calm Calm -- 29.17 in987.8 mb 0.00 in0.0 mm 0.00 in0.0 mm 0.01 in0.3 mm
01:46 PM 49.3°F9.6°C -167.9°F-111.1°C - Calm Calm -- 29.16 in987.5 mb 0.00 in0.0 mm 0.00 in0.0 mm 0.01 in0.3 mm
02:01 PM 48.9°F9.4°C -167.9°F-111.1°C - Calm Calm -- 29.16 in987.5 mb 0.00 in0.0 mm 0.00 in0.0 mm 0.01 in0.3 mm
02:16 PM 47.7°F8.7°C -168.0°F-111.1°C - Calm Calm -- 29.16 in987.5 mb 0.01 in0.3 mm 0.05 in1.3 mm 0.02 in0.5 mm
02:31 PM 48.0°F8.9°C -168.0°F-111.1°C - Calm Calm -- 29.16 in987.5 mb 0.01 in0.3 mm 0.00 in0.0 mm 0.02 in0.5 mm
02:46 PM 48.4°F9.1°C -168.0°F-111.1°C - Calm Calm -- 29.16 in987.5 mb 0.01 in0.3 mm 0.00 in0.0 mm 0.02 in0.5 mm
03:01 PM 48.9°F9.4°C -167.9°F-111.1°C - Calm Calm -- 29.15 in987.1 mb 0.01 in0.3 mm 0.00 in0.0 mm 0.02 in0.5 mm
03:16 PM 48.6°F9.2°C -167.9°F-111.1°C - Calm Calm -- 29.14 in986.8 mb 0.00 in0.0 mm 0.00 in0.0 mm 0.02 in0.5 mm
03:31 PM 48.9°F9.4°C -167.9°F-111.1°C - Calm Calm -- 29.14 in986.8 mb 0.00 in0.0 mm 0.00 in0.0 mm 0.02 in0.5 mm
03:46 PM 48.9°F9.4°C -167.9°F-111.1°C - Calm Calm -- 29.14 in986.8 mb 0.00 in0.0 mm 0.00 in0.0 mm 0.02 in0.5 mm
04:01 PM 48.6°F9.2°C -167.9°F-111.1°C - Calm Calm -- 29.14 in986.8 mb 0.00 in0.0 mm 0.00 in0.0 mm 0.02 in0.5 mm
04:16 PM 48.4°F9.1°C -168.0°F-111.1°C - Calm Calm -- 29.13 in986.5 mb 0.00 in0.0 mm 0.00 in0.0 mm 0.02 in0.5 mm
04:31 PM 48.4°F9.1°C -168.0°F-111.1°C - Calm Calm -- 29.13 in986.5 mb 0.00 in0.0 mm 0.00 in0.0 mm 0.02 in0.5 mm
04:46 PM 47.7°F8.7°C -168.0°F-111.1°C - Calm Calm -- 29.13 in986.5 mb 0.00 in0.0 mm 0.00 in0.0 mm 0.02 in0.5 mm
05:01 PM 47.1°F8.4°C -168.1°F-111.2°C - Calm Calm -- 29.13 in986.5 mb 0.00 in0.0 mm 0.00 in0.0 mm 0.02 in0.5 mm
05:16 PM 46.4°F8.0°C -168.2°F-111.2°C - Calm Calm -- 29.12 in986.1 mb 0.00 in0.0 mm 0.00 in0.0 mm 0.02 in0.5 mm
05:31 PM 45.7°F7.6°C -168.2°F-111.2°C - Calm Calm -- 29.12 in986.1 mb 0.00 in0.0 mm 0.00 in0.0 mm 0.02 in0.5 mm
05:46 PM 45.5°F7.5°C -168.3°F-111.3°C - Calm Calm -- 29.12 in986.1 mb 0.00 in0.0 mm 0.00 in0.0 mm 0.02 in0.5 mm
06:01 PM 45.0°F7.2°C -168.3°F-111.3°C - Calm Calm -- 29.12 in986.1 mb 0.00 in0.0 mm 0.00 in0.0 mm 0.02 in0.5 mm
06:16 PM 45.3°F7.4°C -168.3°F-111.3°C - Calm Calm -- 29.12 in986.1 mb 0.00 in0.0 mm 0.00 in0.0 mm 0.02 in0.5 mm
06:31 PM 45.1°F7.3°C -168.3°F-111.3°C - Calm Calm -- 29.12 in986.1 mb 0.00 in0.0 mm 0.00 in0.0 mm 0.02 in0.5 mm
06:46 PM 44.4°F6.9°C -168.4°F-111.3°C - Calm Calm -- 29.12 in986.1 mb 0.00 in0.0 mm 0.00 in0.0 mm 0.02 in0.5 mm
07:01 PM 44.4°F6.9°C -168.4°F-111.3°C - Calm Calm 0.6 mph1.0 kmh 29.11 in985.8 mb 0.00 in0.0 mm 0.00 in0.0 mm 0.02 in0.5 mm
07:16 PM 44.1°F6.7°C -168.4°F-111.3°C - Calm Calm -- 29.11 in985.8 mb 0.00 in0.0 mm 0.00 in0.0 mm 0.02 in0.5 mm
07:31 PM 43.7°F6.5°C -168.4°F-111.3°C - Calm Calm -- 29.11 in985.8 mb 0.00 in0.0 mm 0.00 in0.0 mm 0.02 in0.5 mm
07:46 PM 43.5°F6.4°C -168.4°F-111.3°C - Calm Calm -- 29.11 in985.8 mb 0.00 in0.0 mm 0.00 in0.0 mm 0.02 in0.5 mm
08:01 PM 43.2°F6.2°C -168.5°F-111.4°C - Calm Calm 0.6 mph1.0 kmh 29.10 in985.4 mb 0.00 in0.0 mm 0.00 in0.0 mm 0.02 in0.5 mm
08:16 PM 43.3°F6.3°C -168.5°F-111.4°C - Calm Calm -- 29.10 in985.4 mb 0.00 in0.0 mm 0.00 in0.0 mm 0.02 in0.5 mm
08:31 PM 43.5°F6.4°C -168.4°F-111.3°C - Calm Calm -- 29.09 in985.1 mb 0.00 in0.0 mm 0.00 in0.0 mm 0.02 in0.5 mm
08:46 PM 43.2°F6.2°C -168.5°F-111.4°C - Calm Calm -- 29.09 in985.1 mb 0.00 in0.0 mm 0.00 in0.0 mm 0.02 in0.5 mm
09:01 PM 42.8°F6.0°C -168.5°F-111.4°C - Calm Calm -- 29.09 in985.1 mb 0.00 in0.0 mm 0.00 in0.0 mm 0.02 in0.5 mm
09:16 PM 42.4°F5.8°C -168.6°F-111.4°C - Calm Calm -- 29.08 in984.8 mb 0.00 in0.0 mm 0.00 in0.0 mm 0.02 in0.5 mm
09:31 PM 42.1°F5.6°C -168.6°F-111.4°C - Calm Calm -- 29.09 in985.1 mb 0.00 in0.0 mm 0.00 in0.0 mm 0.02 in0.5 mm
09:46 PM 42.1°F5.6°C -168.6°F-111.4°C - Calm Calm -- 29.08 in984.8 mb 0.00 in0.0 mm 0.00 in0.0 mm 0.02 in0.5 mm
10:01 PM 42.1°F5.6°C -168.6°F-111.4°C - Calm Calm 1.4 mph2.3 kmh 29.08 in984.8 mb 0.00 in0.0 mm 0.00 in0.0 mm 0.02 in0.5 mm
10:16 PM 41.9°F5.5°C -168.6°F-111.4°C - Calm Calm -- 29.08 in984.8 mb 0.00 in0.0 mm 0.00 in0.0 mm 0.02 in0.5 mm
10:31 PM 41.4°F5.2°C -168.7°F-111.5°C - Calm Calm -- 29.07 in984.4 mb 0.00 in0.0 mm 0.00 in0.0 mm 0.02 in0.5 mm
10:46 PM 41.2°F5.1°C -168.7°F-111.5°C - Calm Calm -- 29.07 in984.4 mb 0.00 in0.0 mm 0.00 in0.0 mm 0.02 in0.5 mm
11:01 PM 40.8°F4.9°C -168.7°F-111.5°C - Calm Calm -- 29.07 in984.4 mb 0.00 in0.0 mm 0.00 in0.0 mm 0.02 in0.5 mm
11:16 PM 40.6°F4.8°C -168.7°F-111.5°C - Calm Calm -- 29.06 in984.1 mb 0.00 in0.0 mm 0.00 in0.0 mm 0.02 in0.5 mm
11:31 PM 40.6°F4.8°C -168.7°F-111.5°C - Calm Calm 0.6 mph1.0 kmh 29.06 in984.1 mb 0.00 in0.0 mm 0.00 in0.0 mm 0.02 in0.5 mm
11:46 PM 40.5°F4.7°C -168.8°F-111.6°C - Calm Calm -- 29.06 in984.1 mb 0.00 in0.0 mm 0.00 in0.0 mm 0.02 in0.5 mm